Time;durP1;ratioP1;P1;durP2;ratioP2;P2;SDS_P1;SDS_P2;PMS_P1;PMS_P2;Temp;Humidity;BMP_temperature;BMP_pressure;BME280_temperature;BME280_humidity;BME280_pressure;Samples;Min_cycle;Max_cycle;Signal;HPM_P1;HPM_P2
2021/06/27 00:02:14;;;;;;;15.00;10.00;;;;;;;19.80;65.56;101359.84;5039900;28;20115;-67
2021/06/27 00:04:42;;;;;;;14.05;10.25;;;;;;;19.78;65.62;101356.41;5041946;28;20546;-66
2021/06/27 00:07:08;;;;;;;12.93;10.88;;;;;;;19.77;65.76;101349.44;5039245;28;20042;-65
2021/06/27 00:09:35;;;;;;;15.00;11.23;;;;;;;19.79;65.78;101355.50;5040976;28;20064;-65
2021/06/27 00:12:01;;;;;;;17.02;11.40;;;;;;;19.80;65.86;101357.22;5035485;28;20053;-67
2021/06/27 00:14:28;;;;;;;14.63;10.98;;;;;;;19.81;65.81;101348.38;5033999;28;20045;-66
2021/06/27 00:16:55;;;;;;;13.35;10.95;;;;;;;19.71;65.98;101347.09;5040540;28;20041;-65
2021/06/27 00:19:22;;;;;;;16.00;11.23;;;;;;;19.63;66.55;101350.09;5042576;28;20045;-67
2021/06/27 00:21:51;;;;;;;14.48;11.32;;;;;;;19.54;66.33;101346.09;5036988;28;20045;-65
2021/06/27 00:24:18;;;;;;;18.33;11.27;;;;;;;19.52;66.59;101347.94;5048124;28;20098;-66
2021/06/27 00:26:44;;;;;;;15.63;10.90;;;;;;;19.54;66.60;101345.25;5041447;28;20045;-67
2021/06/27 00:29:11;;;;;;;16.75;11.52;;;;;;;19.57;66.40;101340.69;5035996;28;20065;-67
2021/06/27 00:31:37;;;;;;;16.63;10.90;;;;;;;19.55;66.35;101342.53;5045677;28;20052;-66
2021/06/27 00:34:04;;;;;;;15.82;11.20;;;;;;;19.56;65.99;101340.75;5042796;28;20052;-66
2021/06/27 00:36:31;;;;;;;13.73;10.10;;;;;;;19.48;66.30;101338.47;5041605;28;20041;-66
2021/06/27 00:38:58;;;;;;;18.00;10.82;;;;;;;19.50;66.31;101334.00;5044207;28;20503;-67
2021/06/27 00:41:25;;;;;;;13.63;10.20;;;;;;;19.49;66.31;101336.69;5042823;28;20061;-67
2021/06/27 00:43:52;;;;;;;15.10;10.30;;;;;;;19.46;66.57;101334.22;5039354;28;20041;-67
2021/06/27 00:46:18;;;;;;;14.07;10.32;;;;;;;19.48;66.40;101337.59;5044844;28;20052;-65
2021/06/27 00:48:45;;;;;;;16.35;10.77;;;;;;;19.52;66.46;101337.38;5045573;28;20053;-68
2021/06/27 00:51:11;;;;;;;14.05;10.30;;;;;;;19.54;66.27;101334.69;5036783;28;20049;-67
2021/06/27 00:53:38;;;;;;;14.35;9.73;;;;;;;19.56;66.41;101338.13;5043086;28;20512;-67
2021/06/27 00:56:06;;;;;;;13.60;10.35;;;;;;;19.63;66.16;101343.94;5038380;28;20042;-64
2021/06/27 00:58:34;;;;;;;15.38;10.48;;;;;;;19.52;66.29;101344.47;5035015;28;20049;-68
2021/06/27 01:01:02;;;;;;;15.05;9.68;;;;;;;19.45;66.72;101338.63;5036156;28;20049;-65
2021/06/27 01:03:29;;;;;;;13.43;9.85;;;;;;;19.48;66.41;101341.13;5041692;28;20057;-67
2021/06/27 01:05:56;;;;;;;12.77;10.15;;;;;;;19.38;66.78;101334.56;5036952;28;20045;-65
2021/06/27 01:08:23;;;;;;;12.23;9.80;;;;;;;19.33;66.99;101331.28;5040474;28;20045;-65
2021/06/27 01:10:49;;;;;;;16.00;10.25;;;;;;;19.37;66.96;101322.28;5043607;28;20151;-68
2021/06/27 01:13:19;;;;;;;14.63;9.93;;;;;;;19.33;67.15;101316.31;5038888;28;20041;-65
2021/06/27 01:15:46;;;;;;;14.63;10.25;;;;;;;19.38;66.91;101326.66;5036889;28;20721;-67
2021/06/27 01:18:12;;;;;;;14.68;10.30;;;;;;;19.39;66.88;101318.66;5036287;28;20045;-66
2021/06/27 01:20:40;;;;;;;12.73;10.10;;;;;;;19.38;66.79;101324.00;5044163;28;20061;-68
2021/06/27 01:23:11;;;;;;;13.43;9.30;;;;;;;19.39;66.76;101317.81;5041291;28;20512;-65
2021/06/27 01:25:40;;;;;;;12.90;10.75;;;;;;;19.42;66.73;101322.91;5035302;28;20049;-65
2021/06/27 01:28:08;;;;;;;12.93;9.48;;;;;;;19.36;66.85;101324.09;5036544;28;20048;-64
2021/06/27 01:30:36;;;;;;;14.43;10.23;;;;;;;19.30;66.96;101320.88;5042633;28;20052;-66
2021/06/27 01:33:06;;;;;;;13.00;9.90;;;;;;;19.33;67.30;101328.63;5036167;28;20067;-67
2021/06/27 01:35:33;;;;;;;15.85;9.90;;;;;;;19.21;67.45;101338.84;5033828;28;20053;-65
2021/06/27 01:38:01;;;;;;;15.25;10.85;;;;;;;19.22;67.38;101332.63;5032239;28;20056;-70
2021/06/27 01:40:32;;;;;;;19.83;10.52;;;;;;;19.13;67.69;101332.22;5035663;28;20057;-68
2021/06/27 01:43:10;;;;;;;16.77;10.63;;;;;;;19.03;68.00;101330.00;5036068;28;20049;-67
2021/06/27 01:45:39;;;;;;;15.23;10.88;;;;;;;18.93;68.26;101334.81;5037455;28;20056;-68
2021/06/27 01:48:08;;;;;;;13.88;9.95;;;;;;;18.94;68.10;101335.69;5039032;28;20063;-67
2021/06/27 01:50:37;;;;;;;15.85;11.18;;;;;;;19.03;68.02;101329.13;5040065;28;20045;-67
2021/06/27 01:53:04;;;;;;;14.15;10.63;;;;;;;18.95;68.35;101332.13;5038031;28;20052;-66
2021/06/27 01:55:33;;;;;;;15.40;10.90;;;;;;;18.89;68.20;101327.94;5046017;28;20646;-67
2021/06/27 01:57:59;;;;;;;15.70;10.23;;;;;;;18.91;68.30;101334.00;5049199;28;20045;-68
2021/06/27 02:00:29;;;;;;;17.73;11.55;;;;;;;18.89;68.58;101333.22;5041094;28;20106;-67
2021/06/27 02:02:56;;;;;;;14.88;10.43;;;;;;;18.92;68.56;101325.16;5054417;28;20503;-69
2021/06/27 02:05:23;;;;;;;14.95;11.02;;;;;;;18.95;68.48;101332.13;5032511;28;20049;-67
2021/06/27 02:07:50;;;;;;;15.30;11.32;;;;;;;18.91;68.43;101325.22;5045971;28;20053;-67
2021/06/27 02:10:20;;;;;;;13.45;10.20;;;;;;;18.87;68.58;101326.28;5047746;28;20050;-68
2021/06/27 02:12:49;;;;;;;16.45;10.68;;;;;;;18.84;68.84;101324.66;5046211;28;20076;-67
2021/06/27 02:15:15;;;;;;;13.55;10.18;;;;;;;18.82;68.80;101315.94;5048337;28;20045;-67
2021/06/27 02:17:49;;;;;;;13.65;10.35;;;;;;;18.83;68.82;101322.94;5049468;28;20068;-68
2021/06/27 02:20:17;;;;;;;14.07;10.98;;;;;;;18.82;68.89;101320.38;5048807;28;20053;-67
2021/06/27 02:22:43;;;;;;;15.90;10.38;;;;;;;18.79;69.03;101321.38;5048550;28;20423;-67
2021/06/27 02:25:11;;;;;;;12.77;10.30;;;;;;;18.80;68.97;101329.19;5050366;28;20052;-68
2021/06/27 02:27:37;;;;;;;15.27;11.00;;;;;;;18.72;69.00;101331.31;5051218;28;20061;-67
2021/06/27 02:30:08;;;;;;;14.95;10.75;;;;;;;18.71;68.95;101331.41;5049908;28;20048;-67
2021/06/27 02:32:35;;;;;;;14.35;10.90;;;;;;;18.69;69.25;101325.34;5050749;28;20052;-66
2021/06/27 02:35:01;;;;;;;13.93;10.82;;;;;;;18.67;69.12;101333.28;5050682;28;20052;-68
2021/06/27 02:37:28;;;;;;;13.57;10.10;;;;;;;18.65;69.31;101328.09;5043591;28;20055;-67
2021/06/27 02:39:54;;;;;;;15.48;10.10;;;;;;;18.61;69.62;101323.91;5043573;28;20053;-67
2021/06/27 02:42:21;;;;;;;15.27;10.93;;;;;;;18.59;69.52;101325.75;5046863;28;20045;-69
2021/06/27 02:44:47;;;;;;;15.05;10.00;;;;;;;18.60;69.15;101322.19;5032136;28;20057;-67
2021/06/27 02:47:16;;;;;;;13.10;10.45;;;;;;;18.57;69.61;101321.44;5043477;28;20045;-67
2021/06/27 02:49:43;;;;;;;15.90;10.95;;;;;;;18.47;69.99;101315.72;5042841;28;20050;-69
2021/06/27 02:52:09;;;;;;;15.90;10.52;;;;;;;18.45;70.14;101315.81;5038160;28;20049;-67
2021/06/27 02:54:36;;;;;;;15.98;10.95;;;;;;;18.41;70.19;101308.09;5050349;28;20045;-67
2021/06/27 02:57:02;;;;;;;18.45;10.68;;;;;;;18.45;69.94;101307.03;5043957;28;20048;-67
2021/06/27 02:59:28;;;;;;;14.40;9.90;;;;;;;18.45;70.06;101304.41;5041295;28;20052;-66
2021/06/27 03:01:55;;;;;;;14.00;10.35;;;;;;;18.39;70.17;101296.78;5045070;28;20409;-67
2021/06/27 03:04:23;;;;;;;15.10;10.18;;;;;;;18.39;70.35;101305.53;5038776;28;20048;-66
2021/06/27 03:06:49;;;;;;;16.48;9.77;;;;;;;18.34;70.06;101303.09;5050236;28;20053;-68
2021/06/27 03:09:15;;;;;;;14.98;10.65;;;;;;;18.29;70.40;101301.56;5051300;28;20049;-69
2021/06/27 03:11:42;;;;;;;13.65;10.45;;;;;;;18.23;70.58;101302.69;5053008;28;20106;-68
2021/06/27 03:14:08;;;;;;;14.27;10.50;;;;;;;18.15;70.96;101296.88;5044544;28;20049;-67
2021/06/27 03:16:35;;;;;;;13.43;10.35;;;;;;;18.17;70.57;101295.91;5052379;28;20045;-67
2021/06/27 03:19:01;;;;;;;15.45;10.40;;;;;;;18.13;70.73;101298.72;5047223;28;20519;-68
2021/06/27 03:21:29;;;;;;;15.55;9.98;;;;;;;18.14;70.62;101298.69;5042799;28;20045;-68
2021/06/27 03:23:55;;;;;;;16.67;11.32;;;;;;;18.11;70.68;101301.44;5039398;28;20056;-68
2021/06/27 03:26:22;;;;;;;13.88;9.77;;;;;;;18.16;70.77;101296.84;5046881;28;20049;-67
2021/06/27 03:28:51;;;;;;;15.52;11.05;;;;;;;18.12;70.54;101300.50;5037888;28;20049;-68
2021/06/27 03:31:18;;;;;;;14.25;9.30;;;;;;;18.14;70.68;101303.06;5037796;28;20049;-68
2021/06/27 03:33:44;;;;;;;13.73;10.70;;;;;;;18.10;70.60;101298.88;5050633;28;20049;-66
2021/06/27 03:36:11;;;;;;;14.75;10.52;;;;;;;18.11;70.52;101303.22;5050260;28;20045;-67
2021/06/27 03:38:45;;;;;;;14.68;10.25;;;;;;;17.99;71.25;101302.81;5050661;28;20132;-70
2021/06/27 03:41:12;;;;;;;14.45;9.73;;;;;;;18.06;70.92;101302.53;5048047;28;20081;-67
2021/06/27 03:43:38;;;;;;;15.07;10.27;;;;;;;18.06;70.96;101298.16;5052296;28;20519;-67
2021/06/27 03:46:05;;;;;;;14.00;10.65;;;;;;;18.14;70.55;101298.69;5047541;28;20527;-65
2021/06/27 03:48:31;;;;;;;13.32;9.32;;;;;;;18.23;70.64;101294.78;5044453;28;20052;-65
2021/06/27 03:50:58;;;;;;;14.27;9.98;;;;;;;18.26;70.25;101296.44;5035979;28;20049;-67
2021/06/27 03:56:06;;;;;;;13.95;10.48;;;;;;;18.45;69.50;101304.41;4989238;28;20058;-67
2021/06/27 03:58:33;;;;;;;12.60;9.63;;;;;;;18.51;69.25;101296.25;4998644;28;20046;-68
2021/06/27 04:00:59;;;;;;;13.65;9.52;;;;;;;18.62;69.00;101304.50;4992273;28;20050;-67
2021/06/27 04:03:26;;;;;;;15.10;9.45;;;;;;;18.80;68.28;101304.63;4991868;28;20053;-67
2021/06/27 04:05:52;;;;;;;12.95;9.73;;;;;;;18.97;68.22;101308.31;4994138;28;20464;-67
2021/06/27 04:08:19;;;;;;;11.73;9.32;;;;;;;19.10;67.42;101312.97;5019872;28;20045;-67
2021/06/27 04:10:45;;;;;;;13.50;9.43;;;;;;;19.21;67.43;101311.59;5010346;28;20523;-68
2021/06/27 04:13:13;;;;;;;13.60;9.63;;;;;;;19.39;66.76;101292.28;5007334;28;20061;-67
2021/06/27 04:15:39;;;;;;;12.05;8.77;;;;;;;19.40;66.48;101295.78;5008664;28;20054;-67
2021/06/27 04:18:09;;;;;;;13.13;9.30;;;;;;;19.36;66.68;101292.44;5014870;28;20044;-67
2021/06/27 04:20:35;;;;;;;15.77;10.23;;;;;;;19.40;66.81;101286.06;5004302;28;20046;-67
2021/06/27 04:23:02;;;;;;;12.80;9.73;;;;;;;19.53;66.38;101281.06;5006246;28;20497;-67
2021/06/27 04:25:28;;;;;;;15.32;9.75;;;;;;;19.69;66.03;101267.97;5008795;28;20056;-67
2021/06/27 04:27:55;;;;;;;13.60;9.50;;;;;;;19.85;65.55;101264.59;5004170;28;20088;-67
2021/06/27 04:30:23;;;;;;;14.88;9.52;;;;;;;19.97;64.79;101268.41;5012676;28;20042;-67
2021/06/27 04:32:49;;;;;;;12.68;9.90;;;;;;;20.03;64.49;101276.03;5013130;28;20054;-66
2021/06/27 04:35:15;;;;;;;14.10;10.10;;;;;;;20.07;64.60;101274.94;5005430;28;20063;-68
2021/06/27 04:37:42;;;;;;;13.82;9.55;;;;;;;20.06;64.54;101282.97;5010503;28;20061;-67
2021/06/27 04:40:09;;;;;;;17.55;10.48;;;;;;;19.99;65.25;101272.69;5011744;28;20663;-68
2021/06/27 04:42:36;;;;;;;12.93;9.38;;;;;;;19.99;65.33;101279.75;5009841;28;20464;-67
2021/06/27 04:45:02;;;;;;;16.13;9.50;;;;;;;19.96;65.41;101282.56;5009008;28;20497;-67
2021/06/27 04:47:30;;;;;;;13.80;9.98;;;;;;;19.90;65.35;101282.88;5011197;28;20054;-67
2021/06/27 04:49:57;;;;;;;16.30;9.73;;;;;;;19.85;65.48;101278.66;5009061;28;20053;-68
2021/06/27 04:52:23;;;;;;;15.77;10.30;;;;;;;19.69;65.86;101273.25;5009931;28;20049;-67
2021/06/27 04:54:50;;;;;;;14.18;9.77;;;;;;;19.64;66.33;101272.63;5008307;28;20049;-67
2021/06/27 04:57:16;;;;;;;13.20;9.95;;;;;;;19.63;66.42;101264.78;4995144;28;20425;-67
2021/06/27 04:59:43;;;;;;;13.60;10.20;;;;;;;19.50;67.33;101262.75;4995614;28;20050;-67
2021/06/27 05:02:09;;;;;;;15.68;10.13;;;;;;;19.50;66.99;101260.13;5025067;28;20103;-67
2021/06/27 05:04:37;;;;;;;15.90;9.82;;;;;;;19.58;67.05;101265.88;5013600;28;20068;-67
2021/06/27 05:07:04;;;;;;;15.75;10.18;;;;;;;19.58;66.96;101271.16;5001706;28;20101;-67
2021/06/27 05:09:30;;;;;;;14.02;10.50;;;;;;;19.61;66.94;101266.66;5008697;28;20049;-67
2021/06/27 05:11:57;;;;;;;13.02;10.02;;;;;;;19.65;66.83;101261.16;5011283;28;20046;-66
2021/06/27 05:14:23;;;;;;;13.30;10.52;;;;;;;19.67;67.10;101261.91;5005638;28;20563;-67
2021/06/27 05:16:49;;;;;;;17.25;11.25;;;;;;;19.71;67.08;101252.09;5009082;28;20524;-67
2021/06/27 05:19:16;;;;;;;14.18;10.15;;;;;;;19.67;67.10;101251.34;5003751;28;20085;-68
2021/06/27 05:21:44;;;;;;;16.83;10.63;;;;;;;19.61;66.98;101246.38;5006943;28;20057;-66
2021/06/27 05:24:10;;;;;;;18.00;10.95;;;;;;;19.71;66.88;101250.28;5007030;28;20051;-66
2021/06/27 05:26:37;;;;;;;14.15;10.95;;;;;;;19.80;66.62;101246.34;4994905;28;20061;-66
2021/06/27 05:29:03;;;;;;;12.93;9.50;;;;;;;19.81;66.53;101236.63;5012201;28;20057;-67
2021/06/27 05:31:32;;;;;;;13.50;10.45;;;;;;;19.78;66.45;101231.50;5011621;28;20421;-67
2021/06/27 05:33:59;;;;;;;14.77;10.48;;;;;;;19.81;66.17;101232.22;5001767;28;20137;-67
2021/06/27 05:36:25;;;;;;;13.40;10.35;;;;;;;20.01;66.12;101233.03;5010214;28;20042;-68
2021/06/27 05:38:53;;;;;;;17.25;10.80;;;;;;;20.16;65.43;101231.38;5009169;28;20398;-66
2021/06/27 05:41:20;;;;;;;20.60;11.30;;;;;;;20.24;64.46;101233.59;5005320;28;20050;-68
2021/06/27 05:43:46;;;;;;;13.65;9.75;;;;;;;20.38;64.57;101230.22;4995863;28;20054;-67
2021/06/27 05:46:13;;;;;;;13.60;10.30;;;;;;;20.66;63.89;101230.47;5012084;28;20053;-67
2021/06/27 05:48:39;;;;;;;14.27;9.55;;;;;;;21.02;63.08;101225.91;5008701;28;20053;-67
2021/06/27 05:51:05;;;;;;;11.85;9.25;;;;;;;21.28;62.27;101220.97;5008552;28;20042;-67
2021/06/27 05:53:32;;;;;;;14.55;9.00;;;;;;;21.57;61.11;101229.88;5009500;28;20053;-67
2021/06/27 05:56:12;;;;;;;13.77;9.57;;;;;;;21.76;60.11;101234.13;4998758;28;20054;-67
2021/06/27 05:58:40;;;;;;;11.30;8.40;;;;;;;21.96;60.05;101240.06;4991752;28;20053;-67
2021/06/27 06:01:07;;;;;;;11.93;8.35;;;;;;;22.23;58.90;101240.19;5005598;28;20049;-66
2021/06/27 06:03:33;;;;;;;13.20;8.63;;;;;;;22.38;58.96;101245.50;5017936;28;20046;-65
2021/06/27 06:06:00;;;;;;;12.82;8.32;;;;;;;22.55;57.95;101250.66;5002333;28;20081;-67
2021/06/27 06:08:27;;;;;;;10.25;8.15;;;;;;;22.60;57.53;101248.59;5009404;28;20045;-66
2021/06/27 06:10:53;;;;;;;12.75;8.32;;;;;;;22.54;58.02;101245.47;5008260;28;20425;-67
2021/06/27 06:13:21;;;;;;;11.40;8.63;;;;;;;22.71;57.45;101249.72;5004395;28;20512;-65
2021/06/27 06:15:48;;;;;;;11.48;9.30;;;;;;;22.86;55.64;101253.22;5013046;28;20057;-68
2021/06/27 06:18:14;;;;;;;14.23;9.18;;;;;;;23.03;55.52;101254.75;5008571;28;20670;-67
2021/06/27 06:20:41;;;;;;;11.52;8.65;;;;;;;23.25;55.30;101249.81;5013038;28;20050;-66
2021/06/27 06:23:07;;;;;;;16.05;8.07;;;;;;;23.31;54.86;101245.09;5010940;28;20045;-66
2021/06/27 06:25:34;;;;;;;11.07;8.60;;;;;;;23.36;54.80;101242.97;5007094;28;20046;-67
2021/06/27 06:28:00;;;;;;;11.45;8.57;;;;;;;23.38;55.01;101244.56;4998453;28;20054;-66
2021/06/27 06:30:28;;;;;;;12.18;8.57;;;;;;;23.23;55.14;101245.56;5023290;28;20053;-67
2021/06/27 06:32:54;;;;;;;11.75;8.73;;;;;;;23.29;54.61;101239.84;5014174;28;20468;-67
2021/06/27 06:35:21;;;;;;;12.95;8.65;;;;;;;23.26;54.56;101238.25;5004643;28;20050;-66
2021/06/27 06:37:47;;;;;;;12.38;8.90;;;;;;;23.17;55.59;101240.59;5006949;28;20071;-67
2021/06/27 06:40:14;;;;;;;14.73;8.80;;;;;;;23.38;54.98;101233.09;5011343;28;20177;-66
2021/06/27 06:42:41;;;;;;;11.48;8.55;;;;;;;23.73;54.29;101243.16;5003658;28;20532;-67
2021/06/27 06:45:08;;;;;;;12.27;8.23;;;;;;;23.96;53.33;101233.66;5014719;28;20056;-66
2021/06/27 06:47:36;;;;;;;13.18;8.52;;;;;;;24.24;53.21;101241.56;5026158;28;20061;-66
2021/06/27 06:50:03;;;;;;;12.52;8.35;;;;;;;24.44;52.49;101243.69;5017521;28;20061;-66
2021/06/27 06:52:30;;;;;;;13.45;8.57;;;;;;;24.70;51.93;101253.47;5008326;28;21510;-67
2021/06/27 06:54:56;;;;;;;10.20;7.70;;;;;;;24.94;50.93;101242.88;4996608;28;20058;-67
2021/06/27 06:57:23;;;;;;;13.38;7.57;;;;;;;25.02;50.80;101240.50;4998631;28;20061;-67
2021/06/27 06:59:49;;;;;;;12.20;8.23;;;;;;;25.18;49.86;101247.41;4995723;28;20046;-67
2021/06/27 07:02:15;;;;;;;11.20;8.15;;;;;;;25.10;50.57;101245.28;5005019;28;20112;-67
2021/06/27 07:04:43;;;;;;;10.77;7.70;;;;;;;25.13;50.23;101251.22;5007252;28;20049;-67
2021/06/27 07:07:10;;;;;;;10.13;8.00;;;;;;;25.19;50.99;101251.75;5010857;28;20525;-67
2021/06/27 07:09:36;;;;;;;14.63;7.57;;;;;;;25.17;49.96;101254.50;5013803;28;20448;-66
2021/06/27 07:12:03;;;;;;;10.52;6.82;;;;;;;25.13;50.01;101245.91;4998938;28;20527;-65
2021/06/27 07:14:29;;;;;;;12.45;7.88;;;;;;;25.13;49.76;101251.22;5013460;28;20080;-66
2021/06/27 07:16:55;;;;;;;13.75;7.95;;;;;;;25.11;49.55;101239.84;5003265;28;20049;-66
2021/06/27 07:19:22;;;;;;;12.50;7.65;;;;;;;24.95;49.66;101245.44;5014979;28;20042;-66
2021/06/27 07:21:50;;;;;;;10.85;8.10;;;;;;;24.85;49.79;101241.75;5014299;28;20057;-67
2021/06/27 07:24:16;;;;;;;10.75;7.20;;;;;;;25.00;50.53;101239.78;5018488;28;20069;-67
2021/06/27 07:26:43;;;;;;;14.52;7.78;;;;;;;25.21;50.61;101244.47;5013993;28;20057;-67
2021/06/27 07:29:10;;;;;;;14.15;7.80;;;;;;;25.38;49.70;101249.44;5012721;28;20056;-67
2021/06/27 07:31:37;;;;;;;11.93;8.10;;;;;;;25.44;49.20;101241.00;5012514;28;20046;-67
2021/06/27 07:34:03;;;;;;;16.40;7.72;;;;;;;25.33;49.31;101237.44;5006943;28;20053;-66
2021/06/27 07:36:30;;;;;;;10.02;6.80;;;;;;;25.30;49.06;101238.50;5005596;28;20045;-66
2021/06/27 07:38:57;;;;;;;14.48;7.10;;;;;;;25.26;49.82;101242.34;5002503;28;20496;-67
2021/06/27 07:41:24;;;;;;;13.98;8.30;;;;;;;25.24;50.23;101246.94;5002651;28;20050;-66
2021/06/27 07:43:51;;;;;;;14.40;7.75;;;;;;;25.22;50.41;101243.53;5009642;28;20054;-67
2021/06/27 07:46:17;;;;;;;14.45;7.78;;;;;;;25.21;49.97;101247.16;5007536;28;20465;-64
2021/06/27 07:48:44;;;;;;;11.43;7.43;;;;;;;25.11;50.21;101244.31;4996504;28;20061;-65
2021/06/27 07:51:10;;;;;;;12.63;8.13;;;;;;;24.88;49.93;101249.50;5009364;28;20046;-67
2021/06/27 07:53:37;;;;;;;11.50;7.47;;;;;;;24.91;50.38;101248.41;5020549;28;20060;-66
2021/06/27 07:56:05;;;;;;;12.90;7.50;;;;;;;25.05;50.16;101248.28;5013158;28;20057;-67
2021/06/27 07:58:32;;;;;;;15.32;7.68;;;;;;;25.09;49.60;101247.09;4995488;28;20713;-66
2021/06/27 08:00:58;;;;;;;11.80;6.72;;;;;;;25.08;51.65;101255.19;5005172;28;20049;-65
2021/06/27 08:03:24;;;;;;;15.85;7.47;;;;;;;24.97;50.18;101253.31;5011167;28;20054;-66
2021/06/27 08:05:51;;;;;;;10.38;7.68;;;;;;;25.03;50.43;101254.69;5010514;28;20046;-69
2021/06/27 08:08:17;;;;;;;11.35;7.65;;;;;;;24.95;50.95;101258.75;5012235;28;20049;-67
2021/06/27 08:10:44;;;;;;;11.30;8.25;;;;;;;24.83;50.09;101257.81;5003725;28;20061;-68
2021/06/27 08:13:12;;;;;;;12.43;7.55;;;;;;;24.76;50.95;101248.56;5007183;28;20054;-66
2021/06/27 08:15:39;;;;;;;11.20;7.43;;;;;;;24.71;51.00;101240.06;5010578;28;20461;-67
2021/06/27 08:18:06;;;;;;;9.65;6.93;;;;;;;24.73;51.42;101246.13;5019430;28;20060;-67
2021/06/27 08:20:32;;;;;;;13.55;7.57;;;;;;;24.75;52.06;101244.22;5018408;28;20045;-68
2021/06/27 08:22:59;;;;;;;10.43;7.00;;;;;;;24.77;51.57;101244.97;5011849;28;20045;-67
2021/06/27 08:25:25;;;;;;;11.95;8.32;;;;;;;24.82;51.50;101240.13;5008175;28;20057;-68
2021/06/27 08:27:52;;;;;;;9.80;7.55;;;;;;;25.01;50.26;101236.16;5010707;28;20049;-66
2021/06/27 08:30:23;;;;;;;10.18;7.72;;;;;;;24.96;51.36;101233.81;5004752;28;20053;-68
2021/06/27 08:32:49;;;;;;;12.65;6.82;;;;;;;25.19;50.79;101239.28;5013016;28;20061;-68
2021/06/27 08:35:17;;;;;;;9.45;6.82;;;;;;;25.39;50.51;101243.16;5009770;28;20133;-67
2021/06/27 08:37:44;;;;;;;13.60;7.00;;;;;;;25.56;49.43;101239.25;5010952;28;20057;-67
2021/06/27 08:40:12;;;;;;;12.43;7.13;;;;;;;25.72;49.14;101227.44;4992990;28;20559;-67
2021/06/27 08:42:39;;;;;;;12.20;7.68;;;;;;;25.94;48.67;101231.13;4996252;28;20052;-66
2021/06/27 08:45:08;;;;;;;13.00;7.18;;;;;;;25.94;48.64;101226.63;5006762;28;20057;-67
2021/06/27 08:47:37;;;;;;;10.32;7.88;;;;;;;25.99;48.00;101228.94;5011099;28;20054;-67
2021/06/27 08:50:05;;;;;;;10.02;7.15;;;;;;;25.91;48.71;101221.53;5007670;28;20623;-67
2021/06/27 08:52:32;;;;;;;9.90;6.95;;;;;;;25.76;48.50;101219.09;5004423;28;20699;-67
2021/06/27 08:54:58;;;;;;;9.65;6.90;;;;;;;25.54;49.09;101213.69;5008221;28;20057;-67
2021/06/27 08:57:25;;;;;;;10.07;7.47;;;;;;;25.33;49.09;101210.81;5001020;28;20050;-67
2021/06/27 08:59:53;;;;;;;15.15;7.80;;;;;;;25.32;49.67;101214.41;5008706;28;20060;-66
2021/06/27 09:02:20;;;;;;;9.20;7.45;;;;;;;25.45;50.13;101213.41;5011551;28;20057;-66
2021/06/27 09:04:48;;;;;;;10.43;7.50;;;;;;;25.31;50.39;101216.22;5000193;28;20069;-66
2021/06/27 09:07:31;;;;;;;8.82;6.80;;;;;;;25.45;50.17;101213.41;5009511;28;20046;-65
2021/06/27 09:10:02;;;;;;;10.75;7.15;;;;;;;25.33;50.24;101216.13;5011815;28;20050;-67
2021/06/27 09:12:44;;;;;;;8.55;6.72;;;;;;;25.12;50.08;101222.06;5012858;28;20080;-64
2021/06/27 09:15:11;;;;;;;10.13;7.63;;;;;;;25.14;50.35;101223.66;4992541;28;20502;-66
2021/06/27 09:17:41;;;;;;;10.57;6.72;;;;;;;25.37;50.44;101210.47;5007333;28;20057;-66
2021/06/27 09:20:11;;;;;;;10.23;6.65;;;;;;;25.64;49.76;101220.03;5007741;28;20045;-66
2021/06/27 09:22:40;;;;;;;11.73;6.75;;;;;;;25.72;48.27;101214.94;5010286;28;20054;-66
2021/06/27 09:25:21;;;;;;;10.45;6.80;;;;;;;26.01;47.91;101209.19;5005315;28;20057;-66
2021/06/27 09:27:58;;;;;;;9.30;7.43;;;;;;;26.26;47.47;101212.66;5004132;28;20510;-66
2021/06/27 09:30:25;;;;;;;11.50;7.40;;;;;;;26.33;46.70;101203.19;5004874;28;20042;-65
2021/06/27 09:32:58;;;;;;;8.75;6.82;;;;;;;26.33;46.82;101200.53;5009587;28;20053;-67
2021/06/27 09:35:47;;;;;;;11.73;7.15;;;;;;;26.41;46.69;101199.06;5006347;28;20045;-67
2021/06/27 09:38:36;;;;;;;10.50;6.88;;;;;;;26.46;46.73;101203.06;5008372;28;20046;-67
2021/06/27 09:41:06;;;;;;;10.18;6.75;;;;;;;26.58;46.50;101201.25;5018513;28;20402;-67
2021/06/27 09:43:34;;;;;;;10.38;6.88;;;;;;;26.62;46.25;101200.03;4995067;28;20046;-66
2021/06/27 09:46:10;;;;;;;8.15;6.40;;;;;;;26.84;45.97;101195.66;4992007;28;20082;-67
2021/06/27 09:48:49;;;;;;;11.80;7.20;;;;;;;27.15;46.35;101196.66;5008223;28;20058;-67
2021/06/27 09:51:17;;;;;;;8.52;6.95;;;;;;;27.39;46.08;101189.41;5009234;28;20046;-67
2021/06/27 09:53:45;;;;;;;9.32;6.18;;;;;;;27.55;43.91;101178.31;5009602;28;20056;-66
2021/06/27 09:56:12;;;;;;;11.02;6.63;;;;;;;27.67;44.03;101184.44;5011004;28;20046;-67
2021/06/27 09:58:39;;;;;;;9.82;6.13;;;;;;;27.82;44.90;101179.59;5002439;28;20057;-66
2021/06/27 10:01:21;;;;;;;8.13;6.20;;;;;;;28.15;44.57;101181.22;5020338;23;20053;-69
2021/06/27 10:03:52;;;;;;;10.63;7.22;;;;;;;28.45;43.11;101176.00;4995789;28;20061;-68
2021/06/27 10:06:20;;;;;;;9.50;6.60;;;;;;;28.60;43.15;101171.09;4986861;28;20042;-69
2021/06/27 10:08:47;;;;;;;9.93;7.32;;;;;;;28.57;42.55;101168.69;4997752;28;20046;-68
2021/06/27 10:11:16;;;;;;;10.38;6.28;;;;;;;28.58;43.23;101163.19;4975565;28;20051;-68
2021/06/27 10:13:46;;;;;;;10.10;6.60;;;;;;;28.63;42.84;101162.78;4960399;28;20043;-68
2021/06/27 10:16:15;;;;;;;8.77;6.72;;;;;;;28.55;42.36;101163.47;4960406;28;20137;-68
2021/06/27 10:18:42;;;;;;;9.23;5.60;;;;;;;28.78;39.62;101157.91;4969195;28;20130;-68
2021/06/27 10:21:09;;;;;;;6.85;4.82;;;;;;;28.78;39.20;101152.56;4970414;28;20121;-68
2021/06/27 10:23:37;;;;;;;8.88;4.78;;;;;;;28.70;39.44;101155.88;4970352;28;20520;-69
2021/06/27 10:26:04;;;;;;;7.90;5.80;;;;;;;28.54;39.43;101151.09;4965108;28;20054;-69
2021/06/27 10:28:33;;;;;;;7.32;5.80;;;;;;;28.46;40.80;101143.72;4965949;28;20044;-69
2021/06/27 10:31:00;;;;;;;8.00;5.50;;;;;;;28.49;41.80;101146.16;4954061;28;20070;-69
2021/06/27 10:33:27;;;;;;;6.90;5.25;;;;;;;28.47;41.68;101145.44;4963296;28;20051;-69
2021/06/27 10:35:54;;;;;;;7.32;5.32;;;;;;;28.39;40.13;101146.09;4957362;28;20198;-67
2021/06/27 10:38:25;;;;;;;6.93;5.00;;;;;;;28.39;40.49;101146.09;4962178;28;20047;-69
2021/06/27 10:40:55;;;;;;;7.68;5.60;;;;;;;28.32;39.73;101139.63;4961163;28;20110;-69
2021/06/27 10:43:22;;;;;;;7.97;5.07;;;;;;;28.26;39.79;101131.28;4960208;28;20066;-69
2021/06/27 10:46:00;;;;;;;7.60;5.18;;;;;;;28.20;40.42;101128.16;4967549;28;20139;-69
2021/06/27 10:48:37;;;;;;;7.40;5.78;;;;;;;27.71;41.44;101130.59;4966390;28;20081;-68
2021/06/27 10:51:05;;;;;;;8.27;6.22;;;;;;;27.61;42.31;101130.53;4971047;28;20097;-69
2021/06/27 10:54:11;;;;;;;8.63;6.90;;;;;;;27.34;43.51;101128.38;4972302;28;20433;-69
2021/06/27 10:56:59;;;;;;;9.27;6.78;;;;;;;27.39;43.80;101133.31;4972305;28;20051;-69
2021/06/27 10:59:57;;;;;;;7.22;5.28;;;;;;;27.70;42.24;101128.06;4954057;28;20047;-70
2021/06/27 11:02:36;;;;;;;7.57;5.95;;;;;;;27.78;43.42;101120.22;4967812;28;20054;-68
2021/06/27 11:05:39;;;;;;;8.05;5.57;;;;;;;27.87;43.35;101130.13;4964562;28;20054;-69
2021/06/27 11:08:07;;;;;;;6.07;5.07;;;;;;;28.01;42.15;101125.38;4970204;28;20043;-68
2021/06/27 11:10:35;;;;;;;7.15;5.38;;;;;;;28.18;41.77;101121.25;4959072;28;20075;-68
2021/06/27 11:13:16;;;;;;;10.40;6.95;;;;;;;28.17;41.57;101123.09;4961154;28;20051;-68
2021/06/27 11:16:03;;;;;;;8.70;5.78;;;;;;;28.31;41.35;101110.31;4975350;28;20506;-68
2021/06/27 11:18:35;;;;;;;6.55;5.25;;;;;;;28.36;39.74;101116.09;4968998;28;20071;-69
2021/06/27 11:21:06;;;;;;;11.85;9.55;;;;;;;28.01;41.03;101114.69;4967853;28;20514;-69
2021/06/27 11:24:06;;;;;;;8.02;5.65;;;;;;;27.83;41.00;101114.47;4965984;28;20640;-68